createdAt,value
2022-10-05T00:01:34.568Z,6.30
2022-10-05T00:04:18.660Z,5.20
2022-10-05T00:06:56.163Z,5.60
2022-10-05T00:09:24.692Z,7.30
2022-10-05T00:11:52.829Z,5.90
2022-10-05T00:14:29.470Z,6.00
2022-10-05T00:16:58.044Z,6.90
2022-10-05T00:19:32.473Z,5.50
2022-10-05T00:22:10.640Z,4.90
2022-10-05T00:24:38.822Z,5.00
2022-10-05T00:27:22.118Z,5.60
2022-10-05T00:29:53.356Z,9.20
2022-10-05T00:32:21.492Z,5.10
2022-10-05T00:34:50.225Z,4.90
2022-10-05T00:37:18.506Z,5.70
2022-10-05T00:39:47.189Z,5.20
2022-10-05T00:42:53.455Z,5.50
2022-10-05T00:45:32.259Z,5.10
2022-10-05T00:48:20.320Z,7.30
2022-10-05T00:51:07.951Z,5.30
2022-10-05T00:53:52.625Z,5.20
2022-10-05T00:56:48.764Z,4.50
2022-10-05T00:59:51.106Z,5.20
2022-10-05T01:02:35.870Z,5.00
2022-10-05T01:05:20.613Z,4.70
2022-10-05T01:07:51.589Z,5.70
2022-10-05T01:10:36.044Z,7.00
2022-10-05T01:13:23.520Z,5.40
2022-10-05T01:15:58.981Z,3.50
2022-10-05T01:18:53.071Z,7.00
2022-10-05T01:21:26.527Z,5.80
2022-10-05T01:24:35.474Z,5.00
2022-10-05T01:27:12.915Z,5.20
2022-10-05T01:32:26.172Z,5.80
2022-10-05T01:35:13.394Z,5.10
2022-10-05T01:37:41.451Z,5.00
2022-10-05T01:40:32.050Z,6.80
2022-10-05T01:43:19.476Z,6.30
2022-10-05T01:46:14.911Z,7.50
2022-10-05T01:48:49.414Z,4.70
2022-10-05T01:51:29.582Z,7.40
2022-10-05T01:54:01.954Z,6.00
2022-10-05T01:57:17.118Z,8.00
2022-10-05T02:00:10.009Z,13.20
2022-10-05T02:02:50.128Z,33.30
2022-10-05T02:05:39.373Z,13.50
2022-10-05T02:08:17.502Z,19.60
2022-10-05T02:11:08.420Z,16.30
2022-10-05T02:14:01.824Z,20.70
2022-10-05T02:16:39.002Z,14.60
2022-10-05T02:19:31.504Z,16.20
2022-10-05T02:22:12.990Z,18.60
2022-10-05T02:24:57.595Z,19.60
2022-10-05T02:27:35.554Z,13.90
2022-10-05T02:30:07.233Z,13.90
2022-10-05T02:32:45.010Z,8.80
2022-10-05T02:35:16.973Z,7.30
2022-10-05T02:38:00.993Z,6.40
2022-10-05T02:41:01.452Z,6.40
2022-10-05T02:43:53.694Z,5.90
2022-10-05T02:46:41.880Z,6.80
2022-10-05T02:49:17.584Z,5.90
2022-10-05T02:51:51.799Z,5.00
2022-10-05T02:54:42.671Z,6.30
2022-10-05T02:57:23.732Z,7.30
2022-10-05T03:00:04.826Z,7.50
2022-10-05T03:02:52.491Z,5.90
2022-10-05T03:05:24.103Z,5.20
2022-10-05T03:08:02.575Z,5.50
2022-10-05T03:11:00.701Z,4.80
2022-10-05T03:13:40.689Z,6.00
2022-10-05T03:16:29.589Z,4.90
2022-10-05T03:19:13.595Z,5.70
2022-10-05T03:22:01.841Z,6.00
2022-10-05T03:24:43.633Z,5.50
2022-10-05T03:27:22.766Z,5.90
2022-10-05T03:30:18.384Z,4.30
2022-10-05T03:33:16.254Z,8.60
2022-10-05T03:36:15.936Z,5.50
2022-10-05T03:41:22.248Z,7.90
2022-10-05T03:44:14.038Z,6.80
2022-10-05T03:47:10.836Z,5.90
2022-10-05T03:49:48.501Z,8.80
2022-10-05T03:52:26.014Z,9.90
2022-10-05T03:55:03.403Z,7.90
2022-10-05T03:57:38.953Z,5.80
2022-10-05T04:00:16.595Z,7.80
2022-10-05T04:02:55.458Z,7.60
2022-10-05T04:05:28.458Z,5.80
2022-10-05T04:07:56.941Z,7.00
2022-10-05T04:10:36.583Z,9.00
2022-10-05T04:13:13.052Z,7.70
2022-10-05T04:15:52.637Z,6.50
2022-10-05T04:18:27.935Z,8.20
2022-10-05T04:21:01.602Z,6.90
2022-10-05T04:23:32.681Z,9.00
2022-10-05T04:26:09.265Z,8.10
2022-10-05T04:28:52.482Z,6.90
2022-10-05T04:31:45.483Z,6.50
2022-10-05T04:34:41.072Z,7.90
2022-10-05T04:37:19.366Z,6.30
2022-10-05T04:40:09.408Z,6.50
2022-10-05T04:42:59.849Z,8.00
2022-10-05T04:46:09.598Z,5.80
2022-10-05T04:49:28.776Z,6.70
2022-10-05T04:52:14.061Z,5.50
2022-10-05T04:55:11.099Z,5.90
2022-10-05T04:57:51.458Z,8.70
2022-10-05T05:00:27.110Z,11.70
2022-10-05T05:03:15.765Z,5.60
2022-10-05T05:06:16.340Z,7.00
2022-10-05T05:09:13.352Z,7.00
2022-10-05T05:11:50.949Z,5.70
2022-10-05T05:14:22.187Z,6.30
2022-10-05T05:17:32.139Z,9.00
2022-10-05T05:20:03.693Z,6.50
2022-10-05T05:23:01.564Z,5.30
2022-10-05T05:25:56.362Z,4.70
2022-10-05T05:29:02.628Z,5.70
2022-10-05T05:31:46.168Z,5.10
2022-10-05T05:35:00.422Z,4.90
2022-10-05T05:37:39.756Z,7.00
2022-10-05T05:40:26.178Z,6.10
2022-10-05T05:43:00.479Z,6.50
2022-10-05T05:45:44.286Z,7.50
2022-10-05T05:48:37.581Z,5.50
2022-10-05T05:51:18.986Z,6.80
2022-10-05T05:54:10.657Z,12.10
2022-10-05T05:56:44.191Z,11.80
2022-10-05T05:59:23.221Z,11.60
2022-10-05T06:01:58.835Z,9.40
2022-10-05T06:04:42.121Z,10.40
2022-10-05T06:07:18.981Z,9.30
2022-10-05T06:10:04.267Z,7.40
2022-10-05T06:12:44.312Z,8.20
2022-10-05T06:15:32.856Z,6.80
2022-10-05T06:18:11.833Z,8.60
2022-10-05T06:20:45.637Z,7.00
2022-10-05T06:23:29.656Z,11.80
2022-10-05T06:26:22.691Z,8.40
2022-10-05T06:28:58.341Z,8.90
2022-10-05T06:31:49.662Z,6.70
2022-10-05T06:34:38.623Z,8.00
2022-10-05T06:37:20.363Z,7.20
2022-10-05T06:40:23.820Z,5.90
2022-10-05T06:43:03.260Z,11.30
2022-10-05T06:45:57.067Z,9.00
2022-10-05T06:48:41.089Z,8.10
2022-10-05T06:51:31.676Z,5.50
2022-10-05T06:54:43.575Z,6.20
2022-10-05T06:57:38.233Z,6.20
2022-10-05T07:00:18.415Z,6.00
2022-10-05T07:03:05.853Z,6.00
2022-10-05T07:05:47.291Z,6.50
2022-10-05T07:09:02.515Z,7.30
2022-10-05T07:11:31.681Z,7.10
2022-10-05T07:14:15.351Z,6.70
2022-10-05T07:16:52.896Z,7.00
2022-10-05T07:19:48.100Z,5.70
2022-10-05T07:22:46.638Z,7.40
2022-10-05T07:25:32.058Z,6.00
2022-10-05T07:28:06.871Z,8.30
2022-10-05T07:30:48.453Z,6.70
2022-10-05T07:33:51.579Z,5.90
2022-10-05T07:36:55.437Z,7.60
2022-10-05T07:39:59.252Z,7.90
2022-10-05T07:42:51.462Z,5.40
2022-10-05T07:45:46.855Z,6.30
2022-10-05T07:48:22.760Z,5.70
2022-10-05T07:51:00.167Z,5.80
2022-10-05T07:53:43.004Z,4.90
2022-10-05T07:56:23.677Z,5.10
2022-10-05T07:59:01.778Z,6.90
2022-10-05T08:01:34.670Z,6.70
2022-10-05T08:04:41.914Z,5.60
2022-10-05T08:10:23.054Z,6.00
2022-10-05T08:13:16.890Z,7.80
2022-10-05T08:15:50.541Z,5.10
2022-10-05T08:18:38.230Z,5.70
2022-10-05T08:21:12.110Z,6.20
2022-10-05T08:24:07.288Z,6.60
2022-10-05T08:27:02.856Z,5.70
2022-10-05T08:29:50.340Z,8.60
2022-10-05T08:32:21.231Z,6.40
2022-10-05T08:34:54.851Z,5.40
2022-10-05T08:37:32.346Z,5.60
2022-10-05T08:40:28.969Z,7.40
2022-10-05T08:43:23.725Z,8.60
2022-10-05T08:46:24.207Z,6.30
2022-10-05T08:48:56.479Z,6.50
2022-10-05T08:51:57.613Z,7.50
2022-10-05T08:54:46.988Z,6.00
2022-10-05T08:57:46.694Z,8.30
2022-10-05T09:00:21.568Z,9.40
2022-10-05T09:03:23.722Z,10.70
2022-10-05T09:06:26.973Z,6.10
2022-10-05T09:09:12.524Z,4.60
2022-10-05T09:12:29.154Z,5.80
2022-10-05T09:15:25.474Z,6.10
2022-10-05T09:18:13.375Z,8.30
2022-10-05T09:21:08.988Z,6.30
2022-10-05T09:23:46.511Z,6.50
2022-10-05T09:26:44.219Z,5.10
2022-10-05T09:29:49.549Z,7.30
2022-10-05T09:33:08.543Z,6.90
2022-10-05T09:35:51.742Z,6.20
2022-10-05T09:38:57.320Z,5.50
2022-10-05T09:41:37.679Z,7.10
2022-10-05T09:44:29.209Z,7.70
2022-10-05T09:47:22.547Z,7.20
2022-10-05T09:49:59.343Z,6.00
2022-10-05T09:52:55.983Z,8.90
2022-10-05T09:55:31.430Z,5.70
2022-10-05T09:58:28.286Z,6.40
2022-10-05T10:01:29.018Z,5.90
2022-10-05T10:04:38.360Z,4.80
2022-10-05T10:07:36.707Z,6.10
2022-10-05T10:13:21.760Z,4.40
2022-10-05T10:16:25.102Z,4.60
2022-10-05T10:19:26.297Z,6.30
2022-10-05T10:21:59.955Z,5.60
2022-10-05T10:24:40.951Z,5.30
2022-10-05T10:27:12.265Z,7.00
2022-10-05T10:29:43.448Z,5.30
2022-10-05T10:32:37.015Z,4.00
2022-10-05T10:35:08.148Z,6.60
2022-10-05T10:37:58.765Z,5.40
2022-10-05T10:40:38.935Z,6.90
2022-10-05T10:43:07.295Z,5.40
2022-10-05T10:46:06.346Z,5.00
2022-10-05T10:48:48.777Z,5.10
2022-10-05T10:51:32.520Z,6.60
2022-10-05T10:54:39.521Z,4.50
2022-10-05T10:57:17.100Z,5.70
2022-10-05T11:00:14.260Z,6.30
2022-10-05T11:02:53.974Z,5.50
2022-10-05T11:05:52.581Z,5.30
2022-10-05T11:11:42.887Z,3.90
2022-10-05T11:14:46.300Z,7.60
2022-10-05T11:17:39.033Z,3.80
2022-10-05T11:20:40.044Z,5.10
2022-10-05T11:23:39.047Z,5.80
2022-10-05T11:26:38.166Z,6.00
2022-10-05T11:29:17.419Z,5.70
2022-10-05T11:32:13.233Z,4.30
2022-10-05T11:35:16.137Z,5.70
2022-10-05T11:38:06.137Z,5.90
2022-10-05T11:41:05.010Z,4.50
2022-10-05T11:43:57.781Z,4.80
2022-10-05T11:46:57.898Z,4.40
2022-10-05T11:50:16.340Z,3.80
2022-10-05T11:53:30.006Z,4.20
2022-10-05T11:56:14.481Z,4.20
2022-10-05T11:58:58.429Z,5.40
2022-10-05T12:01:38.457Z,4.30
2022-10-05T12:04:25.192Z,5.90
2022-10-05T12:07:11.811Z,4.40
2022-10-05T12:10:11.096Z,6.50
2022-10-05T12:12:51.540Z,7.40
2022-10-05T12:15:59.963Z,4.90
2022-10-05T12:18:39.147Z,5.90
2022-10-05T12:21:12.886Z,6.90
2022-10-05T12:23:52.481Z,5.70
2022-10-05T12:26:20.341Z,5.20
2022-10-05T12:28:58.341Z,5.80
2022-10-05T12:31:41.926Z,5.60
2022-10-05T12:34:19.137Z,4.80
2022-10-05T12:37:26.429Z,7.40
2022-10-05T12:40:16.414Z,5.30
2022-10-05T12:43:15.007Z,5.10
2022-10-05T12:46:20.859Z,5.10
2022-10-05T12:49:14.505Z,7.90
2022-10-05T12:51:54.785Z,6.60
2022-10-05T12:54:46.271Z,6.00
2022-10-05T12:57:40.207Z,5.00
2022-10-05T13:00:19.024Z,6.20
2022-10-05T13:02:59.025Z,6.30
2022-10-05T13:06:04.302Z,6.20
2022-10-05T13:08:46.778Z,6.10
2022-10-05T13:11:28.880Z,5.10
2022-10-05T13:14:08.432Z,7.20
2022-10-05T13:16:55.032Z,6.90
2022-10-05T13:19:35.801Z,4.30
2022-10-05T13:22:22.814Z,5.00
2022-10-05T13:24:59.590Z,4.40
2022-10-05T13:27:32.236Z,5.10
2022-10-05T13:30:05.358Z,5.40
2022-10-05T13:32:41.950Z,5.60
2022-10-05T13:35:31.915Z,5.80
2022-10-05T13:38:24.798Z,5.20
2022-10-05T13:40:53.796Z,4.30
2022-10-05T13:43:24.553Z,4.80
2022-10-05T13:46:09.716Z,8.20
2022-10-05T13:49:19.525Z,8.00
2022-10-05T13:51:53.973Z,6.80
2022-10-05T13:54:38.198Z,6.30
2022-10-05T13:57:21.333Z,6.80
2022-10-05T13:59:49.672Z,7.50
2022-10-05T14:02:22.657Z,7.70
2022-10-05T14:04:58.646Z,7.00
2022-10-05T14:07:50.267Z,5.00
2022-10-05T14:10:43.543Z,5.10
2022-10-05T14:13:48.783Z,7.30
2022-10-05T14:16:20.446Z,5.40
2022-10-05T14:19:04.589Z,5.90
2022-10-05T14:21:47.406Z,5.80
2022-10-05T14:24:43.193Z,5.70
2022-10-05T14:27:29.100Z,7.10
2022-10-05T14:30:03.235Z,6.20
2022-10-05T14:33:03.820Z,4.00
2022-10-05T14:35:49.253Z,4.30
2022-10-05T14:38:29.514Z,4.60
2022-10-05T14:41:17.231Z,4.70
2022-10-05T14:44:02.281Z,5.10
2022-10-05T14:46:32.915Z,5.20
2022-10-05T14:49:23.640Z,8.10
2022-10-05T14:51:53.780Z,5.40
2022-10-05T14:54:27.804Z,4.60
2022-10-05T14:57:13.045Z,5.90
2022-10-05T15:00:04.826Z,4.90
2022-10-05T15:02:38.940Z,7.40
2022-10-05T15:05:31.753Z,7.40
2022-10-05T15:08:21.317Z,6.30
2022-10-05T15:10:57.189Z,5.70
2022-10-05T15:13:31.371Z,6.00
2022-10-05T15:16:18.856Z,5.00
2022-10-05T15:19:12.442Z,5.40
2022-10-05T15:21:46.495Z,6.90
2022-10-05T15:24:26.491Z,7.80
2022-10-05T15:27:01.133Z,7.40
2022-10-05T15:29:58.737Z,6.20
2022-10-05T15:32:34.594Z,4.10
2022-10-05T15:35:36.907Z,5.30
2022-10-05T15:38:12.223Z,4.40
2022-10-05T15:40:46.598Z,6.40
2022-10-05T15:43:24.325Z,4.30
2022-10-05T15:46:14.322Z,5.10
2022-10-05T15:49:00.769Z,8.70
2022-10-05T15:51:45.280Z,5.00
2022-10-05T15:54:44.321Z,5.40
2022-10-05T15:57:43.166Z,7.70
2022-10-05T16:03:18.574Z,4.80
2022-10-05T16:06:36.123Z,6.40
2022-10-05T16:09:24.770Z,5.80
2022-10-05T16:12:20.600Z,5.70
2022-10-05T16:14:48.806Z,5.60
2022-10-05T16:18:10.190Z,6.20
2022-10-05T16:20:55.978Z,10.00
2022-10-05T16:23:43.743Z,8.90
2022-10-05T16:26:35.115Z,7.70
2022-10-05T16:29:05.835Z,8.90
2022-10-05T16:31:59.262Z,7.20
2022-10-05T16:34:46.130Z,6.20
2022-10-05T16:37:28.957Z,6.80
2022-10-05T16:40:43.614Z,8.40
2022-10-05T16:43:30.422Z,6.30
2022-10-05T16:46:13.565Z,8.80
2022-10-05T16:48:51.351Z,11.30
2022-10-05T16:51:24.255Z,7.00
2022-10-05T16:54:18.828Z,7.60
2022-10-05T16:56:59.817Z,8.70
2022-10-05T17:00:04.911Z,8.60
2022-10-05T17:03:05.270Z,8.60
2022-10-05T17:05:38.680Z,9.00
2022-10-05T17:08:15.569Z,6.90
2022-10-05T17:10:58.773Z,8.20
2022-10-05T17:14:10.023Z,9.20
2022-10-05T17:17:06.086Z,10.60
2022-10-05T17:19:40.609Z,10.00
2022-10-05T17:22:29.136Z,8.20
2022-10-05T17:25:22.527Z,8.50
2022-10-05T17:28:19.070Z,9.70
2022-10-05T17:30:54.300Z,9.80
2022-10-05T17:33:30.057Z,11.60
2022-10-05T17:36:08.677Z,9.00
2022-10-05T17:39:12.404Z,8.80
2022-10-05T17:41:40.929Z,9.60
2022-10-05T17:44:21.078Z,8.40
2022-10-05T17:47:00.185Z,9.30
2022-10-05T17:50:13.129Z,9.80
2022-10-05T17:53:02.438Z,9.20
2022-10-05T17:55:44.293Z,9.10
2022-10-05T17:58:27.614Z,9.00
2022-10-05T18:00:59.892Z,7.90
2022-10-05T18:03:51.718Z,10.00
2022-10-05T18:06:25.837Z,9.30
2022-10-05T18:09:21.049Z,10.10
2022-10-05T18:12:16.230Z,10.60
2022-10-05T18:14:56.196Z,8.30
2022-10-05T18:17:47.374Z,8.30
2022-10-05T18:20:24.491Z,8.70
2022-10-05T18:23:23.998Z,9.30
2022-10-05T18:26:01.435Z,7.30
2022-10-05T18:28:53.888Z,7.80
2022-10-05T18:31:30.882Z,7.20
2022-10-05T18:34:20.181Z,6.60
2022-10-05T18:37:21.661Z,7.30
2022-10-05T18:39:52.883Z,7.70
2022-10-05T18:43:02.224Z,7.40
2022-10-05T18:45:43.708Z,8.50
2022-10-05T18:48:44.959Z,9.00
2022-10-05T18:51:33.819Z,7.80
2022-10-05T18:54:28.198Z,10.20
2022-10-05T18:56:56.592Z,8.00
2022-10-05T18:59:41.452Z,7.90
2022-10-05T19:02:24.536Z,10.60
2022-10-05T19:05:46.898Z,10.10
2022-10-05T19:08:28.117Z,7.80
2022-10-05T19:11:15.527Z,10.30
2022-10-05T19:14:22.120Z,7.30
2022-10-05T19:17:06.130Z,6.70
2022-10-05T19:19:55.439Z,9.30
2022-10-05T19:22:31.271Z,7.90
2022-10-05T19:25:21.460Z,18.60
2022-10-05T19:28:18.026Z,10.20
2022-10-05T19:31:21.638Z,9.30
2022-10-05T19:34:28.503Z,10.10
2022-10-05T19:37:14.110Z,8.00
2022-10-05T19:39:54.841Z,11.50
2022-10-05T19:42:29.058Z,8.70
2022-10-05T19:45:24.777Z,10.70
2022-10-05T19:48:28.659Z,10.90
2022-10-05T19:51:03.827Z,9.00
2022-10-05T19:53:51.364Z,11.20
2022-10-05T19:56:22.567Z,10.50
2022-10-05T19:58:56.417Z,9.50
2022-10-05T20:01:41.914Z,10.50
2022-10-05T20:04:10.675Z,13.00
2022-10-05T20:06:39.673Z,9.40
2022-10-05T20:09:21.874Z,9.50
2022-10-05T20:11:55.272Z,7.70
2022-10-05T20:14:31.024Z,11.00
2022-10-05T20:17:43.739Z,9.60
2022-10-05T20:20:36.040Z,7.10
2022-10-05T20:23:23.977Z,10.00
2022-10-05T20:26:11.358Z,9.20
2022-10-05T20:28:40.220Z,11.10
2022-10-05T20:31:08.643Z,7.80
2022-10-05T20:33:36.992Z,6.90
2022-10-05T20:36:05.334Z,8.70
2022-10-05T20:38:40.873Z,9.80
2022-10-05T20:41:09.607Z,9.20
2022-10-05T20:43:39.544Z,8.40
2022-10-05T20:46:08.310Z,9.50
2022-10-05T20:48:36.705Z,8.50
2022-10-05T20:51:07.524Z,8.10
2022-10-05T20:53:35.700Z,10.30
2022-10-05T20:56:06.439Z,10.60
2022-10-05T20:58:37.813Z,10.50
2022-10-05T21:01:23.461Z,11.10
2022-10-05T21:03:51.542Z,9.00
2022-10-05T21:06:32.524Z,10.90
2022-10-05T21:09:00.616Z,11.90
2022-10-05T21:11:28.763Z,13.10
2022-10-05T21:14:03.374Z,12.30
2022-10-05T21:16:38.368Z,11.90
2022-10-05T21:19:12.206Z,13.60
2022-10-05T21:21:46.027Z,17.60
2022-10-05T21:24:15.377Z,11.00
2022-10-05T21:26:45.042Z,12.90
2022-10-05T21:29:13.394Z,12.50
2022-10-05T21:31:42.177Z,12.00
2022-10-05T21:34:10.385Z,11.20
2022-10-05T21:36:38.421Z,11.50
2022-10-05T21:39:06.551Z,9.80
2022-10-05T21:41:34.705Z,13.30
2022-10-05T21:44:02.718Z,10.30
2022-10-05T21:46:31.769Z,13.30
2022-10-05T21:49:00.054Z,10.90
2022-10-05T21:51:31.393Z,10.80
2022-10-05T21:54:03.060Z,9.60
2022-10-05T21:56:35.658Z,18.60
2022-10-05T21:59:06.674Z,11.90
2022-10-05T22:01:36.098Z,10.20
2022-10-05T22:04:05.278Z,11.80
2022-10-05T22:06:34.318Z,10.30
2022-10-05T22:09:03.944Z,14.90
2022-10-05T22:11:35.118Z,13.90
2022-10-05T22:14:06.271Z,11.20
2022-10-05T22:16:38.243Z,10.20
2022-10-05T22:19:14.390Z,10.60
2022-10-05T22:21:43.102Z,8.80
2022-10-05T22:24:14.020Z,13.00
2022-10-05T22:26:52.856Z,9.10
2022-10-05T22:29:21.832Z,12.40
2022-10-05T22:31:55.698Z,9.40
2022-10-05T22:34:24.115Z,12.10
2022-10-05T22:37:01.372Z,9.70
2022-10-05T22:39:29.446Z,10.70
2022-10-05T22:41:58.848Z,11.10
2022-10-05T22:44:26.970Z,12.00
2022-10-05T22:46:54.973Z,12.50
2022-10-05T22:49:23.216Z,9.70
2022-10-05T22:51:51.499Z,15.90
2022-10-05T22:54:19.858Z,11.50
2022-10-05T22:56:47.894Z,12.90
2022-10-05T22:59:16.068Z,12.60
2022-10-05T23:01:44.208Z,13.00
2022-10-05T23:04:12.315Z,9.40
2022-10-05T23:06:40.797Z,10.10
2022-10-05T23:09:08.882Z,11.80
2022-10-05T23:11:36.990Z,12.20
2022-10-05T23:14:07.684Z,10.60
2022-10-05T23:16:36.000Z,10.70
2022-10-05T23:19:04.440Z,13.20
2022-10-05T23:21:42.445Z,12.60
2022-10-05T23:24:10.828Z,9.90
2022-10-05T23:26:39.408Z,12.90
2022-10-05T23:29:07.580Z,9.50
2022-10-05T23:31:37.005Z,11.30
2022-10-05T23:34:05.155Z,10.60
2022-10-05T23:36:33.456Z,10.50
2022-10-05T23:39:01.827Z,9.40
2022-10-05T23:41:32.654Z,12.60
2022-10-05T23:44:00.802Z,11.30
2022-10-05T23:46:29.067Z,11.00
2022-10-05T23:48:57.373Z,8.20
2022-10-05T23:51:25.486Z,8.10
2022-10-05T23:53:55.773Z,9.30
2022-10-05T23:56:24.065Z,8.30
2022-10-05T23:58:52.427Z,8.00
